sensor_id;sensor_type;location;lat;lon;timestamp;P1;durP1;ratioP1;P2;durP2;ratioP2
69434;SDS011;56625;54.322;18.582;2022-08-19T00:00:10;15.10;;;10.00;;
69434;SDS011;56625;54.322;18.582;2022-08-19T00:03:02;14.80;;;9.60;;
69434;SDS011;56625;54.322;18.582;2022-08-19T00:05:31;14.70;;;9.80;;
69434;SDS011;56625;54.322;18.582;2022-08-19T00:07:59;15.30;;;9.60;;
69434;SDS011;56625;54.322;18.582;2022-08-19T00:10:27;17.20;;;9.70;;
69434;SDS011;56625;54.322;18.582;2022-08-19T00:12:55;15.60;;;9.40;;
69434;SDS011;56625;54.322;18.582;2022-08-19T00:15:23;14.30;;;9.60;;
69434;SDS011;56625;54.322;18.582;2022-08-19T00:17:51;18.90;;;10.20;;
69434;SDS011;56625;54.322;18.582;2022-08-19T00:20:20;14.80;;;9.90;;
69434;SDS011;56625;54.322;18.582;2022-08-19T00:22:49;14.30;;;9.00;;
69434;SDS011;56625;54.322;18.582;2022-08-19T00:25:17;13.70;;;9.10;;
69434;SDS011;56625;54.322;18.582;2022-08-19T00:27:57;12.80;;;9.00;;
69434;SDS011;56625;54.322;18.582;2022-08-19T00:30:26;18.00;;;10.10;;
69434;SDS011;56625;54.322;18.582;2022-08-19T00:32:58;14.70;;;9.10;;
69434;SDS011;56625;54.322;18.582;2022-08-19T00:35:26;17.80;;;9.90;;
69434;SDS011;56625;54.322;18.582;2022-08-19T00:37:55;14.70;;;9.80;;
69434;SDS011;56625;54.322;18.582;2022-08-19T00:40:23;15.10;;;9.70;;
69434;SDS011;56625;54.322;18.582;2022-08-19T00:42:52;15.00;;;9.20;;
69434;SDS011;56625;54.322;18.582;2022-08-19T00:45:26;12.30;;;8.10;;
69434;SDS011;56625;54.322;18.582;2022-08-19T00:47:58;15.60;;;9.70;;
69434;SDS011;56625;54.322;18.582;2022-08-19T00:50:41;15.30;;;10.10;;
69434;SDS011;56625;54.322;18.582;2022-08-19T00:53:22;14.30;;;9.20;;
69434;SDS011;56625;54.322;18.582;2022-08-19T00:55:56;21.30;;;9.50;;
69434;SDS011;56625;54.322;18.582;2022-08-19T00:58:29;25.30;;;9.70;;
69434;SDS011;56625;54.322;18.582;2022-08-19T01:01:03;17.90;;;10.10;;
69434;SDS011;56625;54.322;18.582;2022-08-19T01:03:31;14.90;;;9.20;;
69434;SDS011;56625;54.322;18.582;2022-08-19T01:06:20;15.50;;;9.20;;
69434;SDS011;56625;54.322;18.582;2022-08-19T01:08:48;16.00;;;9.50;;
69434;SDS011;56625;54.322;18.582;2022-08-19T01:11:16;14.30;;;9.70;;
69434;SDS011;56625;54.322;18.582;2022-08-19T01:13:45;14.60;;;9.90;;
69434;SDS011;56625;54.322;18.582;2022-08-19T01:16:19;17.80;;;10.00;;
69434;SDS011;56625;54.322;18.582;2022-08-19T01:18:50;15.80;;;9.50;;
69434;SDS011;56625;54.322;18.582;2022-08-19T01:21:25;13.90;;;9.50;;
69434;SDS011;56625;54.322;18.582;2022-08-19T01:24:00;16.40;;;11.10;;
69434;SDS011;56625;54.322;18.582;2022-08-19T01:26:28;15.20;;;9.30;;
69434;SDS011;56625;54.322;18.582;2022-08-19T01:28:58;17.80;;;10.50;;
69434;SDS011;56625;54.322;18.582;2022-08-19T01:31:31;15.20;;;10.10;;
69434;SDS011;56625;54.322;18.582;2022-08-19T01:34:01;14.60;;;9.90;;
69434;SDS011;56625;54.322;18.582;2022-08-19T01:36:34;14.50;;;10.50;;
69434;SDS011;56625;54.322;18.582;2022-08-19T01:39:21;15.20;;;10.00;;
69434;SDS011;56625;54.322;18.582;2022-08-19T01:41:51;15.90;;;10.50;;
69434;SDS011;56625;54.322;18.582;2022-08-19T01:44:22;18.10;;;9.80;;
69434;SDS011;56625;54.322;18.582;2022-08-19T01:46:51;14.40;;;9.20;;
69434;SDS011;56625;54.322;18.582;2022-08-19T01:49:21;14.60;;;9.80;;
69434;SDS011;56625;54.322;18.582;2022-08-19T01:51:51;17.50;;;10.10;;
69434;SDS011;56625;54.322;18.582;2022-08-19T01:54:23;15.50;;;10.10;;
69434;SDS011;56625;54.322;18.582;2022-08-19T01:57:07;17.00;;;10.20;;
69434;SDS011;56625;54.322;18.582;2022-08-19T01:59:40;16.20;;;10.00;;
69434;SDS011;56625;54.322;18.582;2022-08-19T02:02:10;15.20;;;10.10;;
69434;SDS011;56625;54.322;18.582;2022-08-19T02:04:38;14.10;;;9.60;;
69434;SDS011;56625;54.322;18.582;2022-08-19T02:07:06;15.00;;;9.60;;
69434;SDS011;56625;54.322;18.582;2022-08-19T02:09:35;14.60;;;9.60;;
69434;SDS011;56625;54.322;18.582;2022-08-19T02:12:04;16.50;;;10.20;;
69434;SDS011;56625;54.322;18.582;2022-08-19T02:14:35;15.70;;;10.50;;
69434;SDS011;56625;54.322;18.582;2022-08-19T02:17:04;19.10;;;10.50;;
69434;SDS011;56625;54.322;18.582;2022-08-19T02:19:32;17.20;;;10.30;;
69434;SDS011;56625;54.322;18.582;2022-08-19T02:22:00;16.50;;;10.30;;
69434;SDS011;56625;54.322;18.582;2022-08-19T02:24:28;15.20;;;9.90;;
69434;SDS011;56625;54.322;18.582;2022-08-19T02:26:56;16.70;;;10.50;;
69434;SDS011;56625;54.322;18.582;2022-08-19T02:29:24;16.00;;;10.10;;
69434;SDS011;56625;54.322;18.582;2022-08-19T02:31:52;15.00;;;10.00;;
69434;SDS011;56625;54.322;18.582;2022-08-19T02:34:21;15.10;;;9.90;;
69434;SDS011;56625;54.322;18.582;2022-08-19T02:36:49;16.30;;;9.90;;
69434;SDS011;56625;54.322;18.582;2022-08-19T02:39:19;16.10;;;9.90;;
69434;SDS011;56625;54.322;18.582;2022-08-19T02:41:46;15.10;;;9.90;;
69434;SDS011;56625;54.322;18.582;2022-08-19T02:44:15;14.60;;;10.50;;
69434;SDS011;56625;54.322;18.582;2022-08-19T02:46:58;15.40;;;10.50;;
69434;SDS011;56625;54.322;18.582;2022-08-19T02:49:26;15.50;;;10.80;;
69434;SDS011;56625;54.322;18.582;2022-08-19T02:51:53;15.00;;;10.20;;
69434;SDS011;56625;54.322;18.582;2022-08-19T02:54:21;14.60;;;9.10;;
69434;SDS011;56625;54.322;18.582;2022-08-19T02:56:49;14.30;;;10.50;;
69434;SDS011;56625;54.322;18.582;2022-08-19T02:59:17;15.60;;;10.00;;
69434;SDS011;56625;54.322;18.582;2022-08-19T03:01:49;13.70;;;10.00;;
69434;SDS011;56625;54.322;18.582;2022-08-19T03:04:18;14.20;;;10.00;;
69434;SDS011;56625;54.322;18.582;2022-08-19T03:06:47;15.60;;;10.20;;
69434;SDS011;56625;54.322;18.582;2022-08-19T03:09:16;15.10;;;9.60;;
69434;SDS011;56625;54.322;18.582;2022-08-19T03:11:47;14.70;;;9.50;;
69434;SDS011;56625;54.322;18.582;2022-08-19T03:14:19;24.00;;;10.40;;
69434;SDS011;56625;54.322;18.582;2022-08-19T03:16:51;16.40;;;9.90;;
69434;SDS011;56625;54.322;18.582;2022-08-19T03:19:20;15.10;;;9.30;;
69434;SDS011;56625;54.322;18.582;2022-08-19T03:21:52;13.30;;;9.10;;
69434;SDS011;56625;54.322;18.582;2022-08-19T03:24:20;12.30;;;9.20;;
69434;SDS011;56625;54.322;18.582;2022-08-19T03:26:51;15.10;;;9.20;;
69434;SDS011;56625;54.322;18.582;2022-08-19T03:29:27;18.40;;;9.60;;
69434;SDS011;56625;54.322;18.582;2022-08-19T03:31:59;14.50;;;9.10;;
69434;SDS011;56625;54.322;18.582;2022-08-19T03:34:33;15.40;;;9.20;;
69434;SDS011;56625;54.322;18.582;2022-08-19T03:37:09;14.00;;;9.00;;
69434;SDS011;56625;54.322;18.582;2022-08-19T03:39:41;14.40;;;9.00;;
69434;SDS011;56625;54.322;18.582;2022-08-19T03:42:10;14.60;;;10.10;;
69434;SDS011;56625;54.322;18.582;2022-08-19T03:44:59;16.50;;;10.50;;
69434;SDS011;56625;54.322;18.582;2022-08-19T03:47:26;15.60;;;9.60;;
69434;SDS011;56625;54.322;18.582;2022-08-19T03:49:54;16.30;;;10.30;;
69434;SDS011;56625;54.322;18.582;2022-08-19T03:52:22;15.10;;;9.90;;
69434;SDS011;56625;54.322;18.582;2022-08-19T03:54:50;16.40;;;11.00;;
69434;SDS011;56625;54.322;18.582;2022-08-19T03:57:19;19.00;;;13.70;;
69434;SDS011;56625;54.322;18.582;2022-08-19T03:59:50;16.50;;;10.90;;
69434;SDS011;56625;54.322;18.582;2022-08-19T04:02:18;14.00;;;10.70;;
69434;SDS011;56625;54.322;18.582;2022-08-19T04:04:46;16.30;;;10.70;;
69434;SDS011;56625;54.322;18.582;2022-08-19T04:07:14;15.10;;;10.10;;
69434;SDS011;56625;54.322;18.582;2022-08-19T04:09:43;14.50;;;9.40;;
69434;SDS011;56625;54.322;18.582;2022-08-19T04:12:11;15.50;;;9.80;;
69434;SDS011;56625;54.322;18.582;2022-08-19T04:14:39;17.40;;;10.30;;
69434;SDS011;56625;54.322;18.582;2022-08-19T04:17:07;24.20;;;11.00;;
69434;SDS011;56625;54.322;18.582;2022-08-19T04:19:36;24.40;;;11.00;;
69434;SDS011;56625;54.322;18.582;2022-08-19T04:22:04;22.00;;;11.40;;
69434;SDS011;56625;54.322;18.582;2022-08-19T04:24:34;22.20;;;10.60;;
69434;SDS011;56625;54.322;18.582;2022-08-19T04:27:03;26.70;;;10.90;;
69434;SDS011;56625;54.322;18.582;2022-08-19T04:29:33;18.80;;;10.40;;
69434;SDS011;56625;54.322;18.582;2022-08-19T04:32:02;19.70;;;10.30;;
69434;SDS011;56625;54.322;18.582;2022-08-19T04:34:36;20.30;;;11.20;;
69434;SDS011;56625;54.322;18.582;2022-08-19T04:37:26;20.30;;;10.90;;
69434;SDS011;56625;54.322;18.582;2022-08-19T04:40:04;17.70;;;11.30;;
69434;SDS011;56625;54.322;18.582;2022-08-19T04:42:52;21.40;;;11.10;;
69434;SDS011;56625;54.322;18.582;2022-08-19T04:45:22;22.40;;;11.40;;
69434;SDS011;56625;54.322;18.582;2022-08-19T04:47:55;28.30;;;11.10;;
69434;SDS011;56625;54.322;18.582;2022-08-19T04:50:47;25.80;;;10.80;;
69434;SDS011;56625;54.322;18.582;2022-08-19T04:53:16;24.10;;;11.80;;
69434;SDS011;56625;54.322;18.582;2022-08-19T04:55:44;23.40;;;11.20;;
69434;SDS011;56625;54.322;18.582;2022-08-19T04:58:12;18.80;;;11.40;;
69434;SDS011;56625;54.322;18.582;2022-08-19T05:00:41;20.50;;;11.30;;
69434;SDS011;56625;54.322;18.582;2022-08-19T05:03:09;18.10;;;10.10;;
69434;SDS011;56625;54.322;18.582;2022-08-19T05:05:40;19.50;;;11.00;;
69434;SDS011;56625;54.322;18.582;2022-08-19T05:08:13;23.90;;;11.50;;
69434;SDS011;56625;54.322;18.582;2022-08-19T05:10:57;19.90;;;11.90;;
69434;SDS011;56625;54.322;18.582;2022-08-19T05:13:26;18.20;;;11.60;;
69434;SDS011;56625;54.322;18.582;2022-08-19T05:15:56;19.10;;;11.60;;
69434;SDS011;56625;54.322;18.582;2022-08-19T05:18:26;19.80;;;11.10;;
69434;SDS011;56625;54.322;18.582;2022-08-19T05:21:33;20.00;;;10.60;;
69434;SDS011;56625;54.322;18.582;2022-08-19T05:24:22;19.80;;;11.10;;
69434;SDS011;56625;54.322;18.582;2022-08-19T05:26:51;17.00;;;10.30;;
69434;SDS011;56625;54.322;18.582;2022-08-19T05:29:20;18.50;;;10.00;;
69434;SDS011;56625;54.322;18.582;2022-08-19T05:31:49;16.60;;;10.40;;
69434;SDS011;56625;54.322;18.582;2022-08-19T05:34:21;16.50;;;9.60;;
69434;SDS011;56625;54.322;18.582;2022-08-19T05:36:56;18.00;;;9.70;;
69434;SDS011;56625;54.322;18.582;2022-08-19T05:39:27;15.60;;;10.00;;
69434;SDS011;56625;54.322;18.582;2022-08-19T05:42:00;15.70;;;10.10;;
69434;SDS011;56625;54.322;18.582;2022-08-19T05:44:32;17.10;;;10.30;;
69434;SDS011;56625;54.322;18.582;2022-08-19T05:47:04;15.60;;;10.80;;
69434;SDS011;56625;54.322;18.582;2022-08-19T05:49:34;17.50;;;11.00;;
69434;SDS011;56625;54.322;18.582;2022-08-19T05:52:08;16.10;;;10.40;;
69434;SDS011;56625;54.322;18.582;2022-08-19T05:54:40;15.10;;;10.30;;
69434;SDS011;56625;54.322;18.582;2022-08-19T05:57:10;15.10;;;10.10;;
69434;SDS011;56625;54.322;18.582;2022-08-19T05:59:39;16.50;;;9.60;;
69434;SDS011;56625;54.322;18.582;2022-08-19T06:02:07;14.10;;;9.50;;
69434;SDS011;56625;54.322;18.582;2022-08-19T06:04:35;15.30;;;9.40;;
69434;SDS011;56625;54.322;18.582;2022-08-19T06:07:03;15.60;;;8.90;;
69434;SDS011;56625;54.322;18.582;2022-08-19T06:09:40;14.10;;;8.70;;
69434;SDS011;56625;54.322;18.582;2022-08-19T06:12:29;13.40;;;8.70;;
69434;SDS011;56625;54.322;18.582;2022-08-19T06:15:02;13.60;;;9.10;;
69434;SDS011;56625;54.322;18.582;2022-08-19T06:17:33;14.80;;;9.50;;
69434;SDS011;56625;54.322;18.582;2022-08-19T06:20:05;14.20;;;8.50;;
69434;SDS011;56625;54.322;18.582;2022-08-19T06:22:39;15.20;;;9.60;;
69434;SDS011;56625;54.322;18.582;2022-08-19T06:25:10;14.60;;;9.60;;
69434;SDS011;56625;54.322;18.582;2022-08-19T06:27:39;14.70;;;9.20;;
69434;SDS011;56625;54.322;18.582;2022-08-19T06:30:28;13.60;;;9.10;;
69434;SDS011;56625;54.322;18.582;2022-08-19T06:32:56;13.50;;;9.30;;
69434;SDS011;56625;54.322;18.582;2022-08-19T06:35:24;14.70;;;10.00;;
69434;SDS011;56625;54.322;18.582;2022-08-19T06:37:52;14.20;;;10.10;;
69434;SDS011;56625;54.322;18.582;2022-08-19T06:40:21;16.70;;;9.60;;
69434;SDS011;56625;54.322;18.582;2022-08-19T06:42:49;13.80;;;9.30;;
69434;SDS011;56625;54.322;18.582;2022-08-19T06:45:22;13.00;;;9.00;;
69434;SDS011;56625;54.322;18.582;2022-08-19T06:48:02;14.30;;;8.80;;
69434;SDS011;56625;54.322;18.582;2022-08-19T06:50:30;15.80;;;9.30;;
69434;SDS011;56625;54.322;18.582;2022-08-19T06:52:58;13.00;;;9.00;;
69434;SDS011;56625;54.322;18.582;2022-08-19T06:55:31;17.30;;;9.20;;
69434;SDS011;56625;54.322;18.582;2022-08-19T06:58:03;14.20;;;9.10;;
69434;SDS011;56625;54.322;18.582;2022-08-19T07:00:32;14.20;;;9.00;;
69434;SDS011;56625;54.322;18.582;2022-08-19T07:03:01;16.40;;;9.40;;
69434;SDS011;56625;54.322;18.582;2022-08-19T07:05:41;13.70;;;9.00;;
69434;SDS011;56625;54.322;18.582;2022-08-19T07:08:13;15.60;;;8.50;;
69434;SDS011;56625;54.322;18.582;2022-08-19T07:10:45;14.10;;;8.40;;
69434;SDS011;56625;54.322;18.582;2022-08-19T07:13:13;13.40;;;8.50;;
69434;SDS011;56625;54.322;18.582;2022-08-19T07:15:41;14.40;;;8.10;;
69434;SDS011;56625;54.322;18.582;2022-08-19T07:18:09;13.50;;;8.30;;
69434;SDS011;56625;54.322;18.582;2022-08-19T07:20:39;14.00;;;8.80;;
69434;SDS011;56625;54.322;18.582;2022-08-19T07:28:17;13.30;;;8.60;;
69434;SDS011;56625;54.322;18.582;2022-08-19T07:34:34;12.80;;;8.60;;
69434;SDS011;56625;54.322;18.582;2022-08-19T07:37:15;12.00;;;8.50;;
69434;SDS011;56625;54.322;18.582;2022-08-19T07:40:34;13.00;;;8.60;;
69434;SDS011;56625;54.322;18.582;2022-08-19T07:43:07;14.50;;;9.00;;
69434;SDS011;56625;54.322;18.582;2022-08-19T07:45:41;12.50;;;8.40;;
69434;SDS011;56625;54.322;18.582;2022-08-19T07:48:14;14.80;;;8.30;;
69434;SDS011;56625;54.322;18.582;2022-08-19T07:50:45;13.70;;;8.50;;
69434;SDS011;56625;54.322;18.582;2022-08-19T07:53:14;15.90;;;9.00;;
69434;SDS011;56625;54.322;18.582;2022-08-19T07:55:42;15.00;;;9.00;;
69434;SDS011;56625;54.322;18.582;2022-08-19T07:58:12;12.90;;;8.40;;
69434;SDS011;56625;54.322;18.582;2022-08-19T08:00:44;12.40;;;8.50;;
69434;SDS011;56625;54.322;18.582;2022-08-19T08:03:16;12.80;;;8.10;;
69434;SDS011;56625;54.322;18.582;2022-08-19T08:05:46;12.00;;;7.80;;
69434;SDS011;56625;54.322;18.582;2022-08-19T08:08:33;13.80;;;8.20;;
69434;SDS011;56625;54.322;18.582;2022-08-19T08:11:20;14.10;;;8.20;;
69434;SDS011;56625;54.322;18.582;2022-08-19T08:13:50;12.20;;;8.40;;
69434;SDS011;56625;54.322;18.582;2022-08-19T08:16:40;13.20;;;8.30;;
69434;SDS011;56625;54.322;18.582;2022-08-19T08:19:14;12.50;;;8.30;;
69434;SDS011;56625;54.322;18.582;2022-08-19T08:22:00;12.90;;;7.60;;
69434;SDS011;56625;54.322;18.582;2022-08-19T08:24:47;13.00;;;8.00;;
69434;SDS011;56625;54.322;18.582;2022-08-19T08:27:15;12.30;;;8.20;;
69434;SDS011;56625;54.322;18.582;2022-08-19T08:29:44;12.80;;;8.10;;
69434;SDS011;56625;54.322;18.582;2022-08-19T08:32:12;12.70;;;8.00;;
69434;SDS011;56625;54.322;18.582;2022-08-19T08:34:42;14.50;;;7.50;;
69434;SDS011;56625;54.322;18.582;2022-08-19T08:37:10;12.70;;;7.30;;
69434;SDS011;56625;54.322;18.582;2022-08-19T08:39:42;14.00;;;7.70;;
69434;SDS011;56625;54.322;18.582;2022-08-19T08:42:20;14.00;;;7.50;;
69434;SDS011;56625;54.322;18.582;2022-08-19T08:45:12;11.60;;;6.80;;
69434;SDS011;56625;54.322;18.582;2022-08-19T08:47:49;12.20;;;6.80;;
69434;SDS011;56625;54.322;18.582;2022-08-19T08:50:38;12.00;;;7.10;;
69434;SDS011;56625;54.322;18.582;2022-08-19T08:53:14;10.60;;;6.90;;
69434;SDS011;56625;54.322;18.582;2022-08-19T08:56:02;12.40;;;7.00;;
69434;SDS011;56625;54.322;18.582;2022-08-19T08:59:07;14.30;;;6.80;;
69434;SDS011;56625;54.322;18.582;2022-08-19T09:01:57;13.50;;;6.10;;
69434;SDS011;56625;54.322;18.582;2022-08-19T09:04:28;13.70;;;6.60;;
69434;SDS011;56625;54.322;18.582;2022-08-19T09:16:19;9.30;;;6.00;;
69434;SDS011;56625;54.322;18.582;2022-08-19T09:19:22;11.70;;;6.10;;
69434;SDS011;56625;54.322;18.582;2022-08-19T09:22:29;12.20;;;5.80;;
69434;SDS011;56625;54.322;18.582;2022-08-19T09:25:09;11.40;;;5.90;;
69434;SDS011;56625;54.322;18.582;2022-08-19T09:32:36;11.30;;;5.80;;
69434;SDS011;56625;54.322;18.582;2022-08-19T09:36:20;13.70;;;6.10;;
69434;SDS011;56625;54.322;18.582;2022-08-19T09:39:34;11.60;;;5.70;;
69434;SDS011;56625;54.322;18.582;2022-08-19T09:42:05;10.30;;;5.70;;
69434;SDS011;56625;54.322;18.582;2022-08-19T09:45:33;15.70;;;5.90;;
69434;SDS011;56625;54.322;18.582;2022-08-19T09:48:32;12.70;;;6.00;;
69434;SDS011;56625;54.322;18.582;2022-08-19T09:51:08;10.00;;;5.90;;
69434;SDS011;56625;54.322;18.582;2022-08-19T09:53:39;12.00;;;5.50;;
69434;SDS011;56625;54.322;18.582;2022-08-19T09:56:10;9.10;;;5.60;;
69434;SDS011;56625;54.322;18.582;2022-08-19T09:58:40;9.40;;;5.30;;
69434;SDS011;56625;54.322;18.582;2022-08-19T10:01:09;9.30;;;5.60;;
69434;SDS011;56625;54.322;18.582;2022-08-19T10:03:38;10.30;;;5.70;;
69434;SDS011;56625;54.322;18.582;2022-08-19T10:06:06;8.40;;;5.20;;
69434;SDS011;56625;54.322;18.582;2022-08-19T10:08:44;11.10;;;5.60;;
69434;SDS011;56625;54.322;18.582;2022-08-19T10:11:18;10.40;;;5.70;;
69434;SDS011;56625;54.322;18.582;2022-08-19T10:14:07;9.50;;;5.70;;
69434;SDS011;56625;54.322;18.582;2022-08-19T10:16:43;9.20;;;5.60;;
69434;SDS011;56625;54.322;18.582;2022-08-19T10:19:17;12.20;;;5.80;;
69434;SDS011;56625;54.322;18.582;2022-08-19T10:21:53;11.50;;;5.60;;
69434;SDS011;56625;54.322;18.582;2022-08-19T10:24:27;11.10;;;5.60;;
69434;SDS011;56625;54.322;18.582;2022-08-19T10:26:59;10.40;;;5.40;;
69434;SDS011;56625;54.322;18.582;2022-08-19T10:29:30;10.20;;;5.30;;
69434;SDS011;56625;54.322;18.582;2022-08-19T10:32:16;10.10;;;5.90;;
69434;SDS011;56625;54.322;18.582;2022-08-19T10:35:13;10.00;;;6.10;;
69434;SDS011;56625;54.322;18.582;2022-08-19T10:39:08;10.40;;;5.30;;
69434;SDS011;56625;54.322;18.582;2022-08-19T10:41:48;8.80;;;5.40;;
69434;SDS011;56625;54.322;18.582;2022-08-19T10:44:29;11.10;;;5.80;;
69434;SDS011;56625;54.322;18.582;2022-08-19T10:47:33;11.70;;;5.50;;
69434;SDS011;56625;54.322;18.582;2022-08-19T10:50:38;9.70;;;6.00;;
69434;SDS011;56625;54.322;18.582;2022-08-19T10:53:59;11.20;;;6.10;;
69434;SDS011;56625;54.322;18.582;2022-08-19T10:56:28;11.40;;;5.90;;
69434;SDS011;56625;54.322;18.582;2022-08-19T10:59:26;11.20;;;5.50;;
69434;SDS011;56625;54.322;18.582;2022-08-19T11:02:05;11.50;;;4.80;;
69434;SDS011;56625;54.322;18.582;2022-08-19T11:04:34;10.80;;;5.90;;
69434;SDS011;56625;54.322;18.582;2022-08-19T11:07:04;13.30;;;6.40;;
69434;SDS011;56625;54.322;18.582;2022-08-19T11:09:39;9.50;;;6.10;;
69434;SDS011;56625;54.322;18.582;2022-08-19T11:12:20;11.60;;;6.00;;
69434;SDS011;56625;54.322;18.582;2022-08-19T11:14:52;8.20;;;5.70;;
69434;SDS011;56625;54.322;18.582;2022-08-19T11:17:22;13.80;;;7.00;;
69434;SDS011;56625;54.322;18.582;2022-08-19T11:19:51;12.00;;;6.10;;
69434;SDS011;56625;54.322;18.582;2022-08-19T11:22:19;10.80;;;5.40;;
69434;SDS011;56625;54.322;18.582;2022-08-19T11:24:47;14.10;;;6.10;;
69434;SDS011;56625;54.322;18.582;2022-08-19T11:27:15;9.70;;;5.90;;
69434;SDS011;56625;54.322;18.582;2022-08-19T11:29:49;11.10;;;5.80;;
69434;SDS011;56625;54.322;18.582;2022-08-19T11:32:21;10.80;;;5.50;;
69434;SDS011;56625;54.322;18.582;2022-08-19T11:34:55;10.40;;;6.10;;
69434;SDS011;56625;54.322;18.582;2022-08-19T11:37:51;12.50;;;6.20;;
69434;SDS011;56625;54.322;18.582;2022-08-19T11:40:28;10.40;;;5.90;;
69434;SDS011;56625;54.322;18.582;2022-08-19T11:44:14;11.60;;;5.90;;
69434;SDS011;56625;54.322;18.582;2022-08-19T11:46:45;11.10;;;6.20;;
69434;SDS011;56625;54.322;18.582;2022-08-19T11:49:16;11.10;;;6.50;;
69434;SDS011;56625;54.322;18.582;2022-08-19T11:51:49;9.00;;;6.00;;
69434;SDS011;56625;54.322;18.582;2022-08-19T11:54:20;11.10;;;5.90;;
69434;SDS011;56625;54.322;18.582;2022-08-19T11:56:48;12.80;;;6.30;;
69434;SDS011;56625;54.322;18.582;2022-08-19T11:59:16;9.10;;;5.70;;
69434;SDS011;56625;54.322;18.582;2022-08-19T12:01:44;10.20;;;6.10;;
69434;SDS011;56625;54.322;18.582;2022-08-19T12:04:12;11.00;;;6.00;;
69434;SDS011;56625;54.322;18.582;2022-08-19T12:06:40;9.80;;;5.80;;
69434;SDS011;56625;54.322;18.582;2022-08-19T12:09:10;12.50;;;6.10;;
69434;SDS011;56625;54.322;18.582;2022-08-19T12:11:39;11.20;;;5.60;;
69434;SDS011;56625;54.322;18.582;2022-08-19T12:14:11;13.50;;;6.30;;
69434;SDS011;56625;54.322;18.582;2022-08-19T12:16:45;10.30;;;5.70;;
69434;SDS011;56625;54.322;18.582;2022-08-19T12:19:19;11.10;;;6.00;;
69434;SDS011;56625;54.322;18.582;2022-08-19T12:21:50;11.60;;;5.90;;
69434;SDS011;56625;54.322;18.582;2022-08-19T12:24:19;10.50;;;5.50;;
69434;SDS011;56625;54.322;18.582;2022-08-19T12:26:50;13.40;;;6.20;;
69434;SDS011;56625;54.322;18.582;2022-08-19T12:29:21;12.50;;;5.90;;
69434;SDS011;56625;54.322;18.582;2022-08-19T12:31:59;12.70;;;5.90;;
69434;SDS011;56625;54.322;18.582;2022-08-19T12:34:32;11.40;;;5.60;;
69434;SDS011;56625;54.322;18.582;2022-08-19T12:37:12;11.00;;;6.10;;
69434;SDS011;56625;54.322;18.582;2022-08-19T12:39:47;12.70;;;5.90;;
69434;SDS011;56625;54.322;18.582;2022-08-19T12:42:15;11.30;;;5.50;;
69434;SDS011;56625;54.322;18.582;2022-08-19T12:44:50;12.80;;;5.60;;
69434;SDS011;56625;54.322;18.582;2022-08-19T13:04:58;9.90;;;5.80;;
69434;SDS011;56625;54.322;18.582;2022-08-19T13:07:28;13.10;;;5.80;;
69434;SDS011;56625;54.322;18.582;2022-08-19T13:10:07;12.00;;;5.50;;
69434;SDS011;56625;54.322;18.582;2022-08-19T13:12:38;12.00;;;6.40;;
69434;SDS011;56625;54.322;18.582;2022-08-19T13:15:11;9.70;;;5.50;;
69434;SDS011;56625;54.322;18.582;2022-08-19T13:17:54;8.60;;;4.70;;
69434;SDS011;56625;54.322;18.582;2022-08-19T13:20:55;10.30;;;6.10;;
69434;SDS011;56625;54.322;18.582;2022-08-19T13:23:43;11.70;;;6.60;;
69434;SDS011;56625;54.322;18.582;2022-08-19T13:26:14;9.10;;;6.20;;
69434;SDS011;56625;54.322;18.582;2022-08-19T13:28:43;10.30;;;6.20;;
69434;SDS011;56625;54.322;18.582;2022-08-19T13:31:34;10.30;;;5.80;;
69434;SDS011;56625;54.322;18.582;2022-08-19T13:34:32;11.50;;;5.80;;
69434;SDS011;56625;54.322;18.582;2022-08-19T13:37:03;11.90;;;6.10;;
69434;SDS011;56625;54.322;18.582;2022-08-19T13:39:33;10.40;;;6.40;;
69434;SDS011;56625;54.322;18.582;2022-08-19T13:42:06;12.10;;;6.20;;
69434;SDS011;56625;54.322;18.582;2022-08-19T13:44:36;11.50;;;6.20;;
69434;SDS011;56625;54.322;18.582;2022-08-19T13:47:06;13.10;;;6.40;;
69434;SDS011;56625;54.322;18.582;2022-08-19T13:49:36;16.60;;;6.40;;
69434;SDS011;56625;54.322;18.582;2022-08-19T13:52:05;10.60;;;6.10;;
69434;SDS011;56625;54.322;18.582;2022-08-19T13:55:00;11.30;;;6.30;;
69434;SDS011;56625;54.322;18.582;2022-08-19T13:57:35;13.60;;;5.90;;
69434;SDS011;56625;54.322;18.582;2022-08-19T14:00:17;10.60;;;5.90;;
69434;SDS011;56625;54.322;18.582;2022-08-19T14:03:06;10.70;;;5.80;;
69434;SDS011;56625;54.322;18.582;2022-08-19T14:08:46;11.80;;;6.20;;
69434;SDS011;56625;54.322;18.582;2022-08-19T14:11:14;12.10;;;6.60;;
69434;SDS011;56625;54.322;18.582;2022-08-19T14:13:49;10.50;;;6.10;;
69434;SDS011;56625;54.322;18.582;2022-08-19T14:16:20;10.90;;;6.70;;
69434;SDS011;56625;54.322;18.582;2022-08-19T14:19:02;12.70;;;6.30;;
69434;SDS011;56625;54.322;18.582;2022-08-19T14:21:40;11.50;;;6.00;;
69434;SDS011;56625;54.322;18.582;2022-08-19T14:24:12;12.10;;;6.10;;
69434;SDS011;56625;54.322;18.582;2022-08-19T14:26:42;10.40;;;5.90;;
69434;SDS011;56625;54.322;18.582;2022-08-19T14:29:17;12.10;;;6.30;;
69434;SDS011;56625;54.322;18.582;2022-08-19T14:32:00;10.20;;;5.90;;
69434;SDS011;56625;54.322;18.582;2022-08-19T14:34:28;10.50;;;5.70;;
69434;SDS011;56625;54.322;18.582;2022-08-19T14:36:56;9.90;;;6.00;;
69434;SDS011;56625;54.322;18.582;2022-08-19T14:39:28;11.40;;;5.90;;
69434;SDS011;56625;54.322;18.582;2022-08-19T14:41:56;11.90;;;6.40;;
69434;SDS011;56625;54.322;18.582;2022-08-19T14:44:28;11.10;;;6.40;;
69434;SDS011;56625;54.322;18.582;2022-08-19T14:47:01;10.10;;;6.10;;
69434;SDS011;56625;54.322;18.582;2022-08-19T14:49:30;9.90;;;5.60;;
69434;SDS011;56625;54.322;18.582;2022-08-19T14:52:08;11.20;;;6.30;;
69434;SDS011;56625;54.322;18.582;2022-08-19T14:54:36;12.50;;;5.80;;
69434;SDS011;56625;54.322;18.582;2022-08-19T14:57:03;12.70;;;5.80;;
69434;SDS011;56625;54.322;18.582;2022-08-19T14:59:31;11.80;;;6.40;;
69434;SDS011;56625;54.322;18.582;2022-08-19T15:02:01;10.50;;;6.10;;
69434;SDS011;56625;54.322;18.582;2022-08-19T15:04:49;12.10;;;6.00;;
69434;SDS011;56625;54.322;18.582;2022-08-19T15:07:25;11.30;;;6.00;;
69434;SDS011;56625;54.322;18.582;2022-08-19T15:09:57;13.70;;;6.40;;
69434;SDS011;56625;54.322;18.582;2022-08-19T15:12:25;10.80;;;6.60;;
69434;SDS011;56625;54.322;18.582;2022-08-19T15:14:53;10.30;;;6.10;;
69434;SDS011;56625;54.322;18.582;2022-08-19T15:17:23;14.80;;;6.30;;
69434;SDS011;56625;54.322;18.582;2022-08-19T15:20:13;15.30;;;6.90;;
69434;SDS011;56625;54.322;18.582;2022-08-19T15:22:46;12.80;;;6.70;;
69434;SDS011;56625;54.322;18.582;2022-08-19T15:25:17;12.10;;;6.80;;
69434;SDS011;56625;54.322;18.582;2022-08-19T15:27:47;11.50;;;6.50;;
69434;SDS011;56625;54.322;18.582;2022-08-19T15:30:21;13.00;;;6.50;;
69434;SDS011;56625;54.322;18.582;2022-08-19T15:32:52;9.70;;;6.30;;
69434;SDS011;56625;54.322;18.582;2022-08-19T15:35:22;11.80;;;6.70;;
69434;SDS011;56625;54.322;18.582;2022-08-19T15:37:52;11.70;;;6.60;;
69434;SDS011;56625;54.322;18.582;2022-08-19T15:40:25;14.10;;;7.10;;
69434;SDS011;56625;54.322;18.582;2022-08-19T15:42:55;11.60;;;6.20;;
69434;SDS011;56625;54.322;18.582;2022-08-19T15:45:23;13.10;;;6.30;;